sensor_id;sensor_type;location;lat;lon;timestamp;pressure;altitude;pressure_sealevel;temperature;humidity
58771;BME280;44539;42.962;1.596;2022-07-01T06:32:31;97508.28;;;13.63;100.00
58771;BME280;44539;42.962;1.596;2022-07-01T06:34:57;97508.16;;;13.72;100.00
58771;BME280;44539;42.962;1.596;2022-07-01T06:37:22;97503.38;;;13.82;100.00
58771;BME280;44539;42.962;1.596;2022-07-01T06:39:47;97503.84;;;13.85;98.65
58771;BME280;44539;42.962;1.596;2022-07-01T06:42:13;97500.19;;;13.93;97.44
58771;BME280;44539;42.962;1.596;2022-07-01T06:44:38;97497.75;;;13.92;94.75
58771;BME280;44539;42.962;1.596;2022-07-01T06:47:04;97498.19;;;13.95;95.12
58771;BME280;44539;42.962;1.596;2022-07-01T06:49:29;97496.88;;;13.91;94.39
58771;BME280;44539;42.962;1.596;2022-07-01T06:51:55;97501.75;;;14.02;95.28
58771;BME280;44539;42.962;1.596;2022-07-01T06:54:20;97505.97;;;14.12;95.73
58771;BME280;44539;42.962;1.596;2022-07-01T06:56:46;97496.16;;;14.19;93.97
58771;BME280;44539;42.962;1.596;2022-07-01T06:59:12;97494.53;;;14.18;95.05
58771;BME280;44539;42.962;1.596;2022-07-01T07:01:37;97499.69;;;14.19;90.66
58771;BME280;44539;42.962;1.596;2022-07-01T07:04:03;97493.78;;;14.24;90.89
58771;BME280;44539;42.962;1.596;2022-07-01T07:06:28;97497.78;;;14.35;92.72
58771;BME280;44539;42.962;1.596;2022-07-01T07:08:54;97494.06;;;14.36;92.78
58771;BME280;44539;42.962;1.596;2022-07-01T07:11:19;97498.88;;;14.40;92.33
58771;BME280;44539;42.962;1.596;2022-07-01T07:13:45;97490.53;;;14.50;91.27
58771;BME280;44539;42.962;1.596;2022-07-01T07:16:11;97496.84;;;14.42;86.30
58771;BME280;44539;42.962;1.596;2022-07-01T07:18:36;97502.25;;;14.49;85.04
58771;BME280;44539;42.962;1.596;2022-07-01T07:21:02;97495.63;;;14.45;85.25
58771;BME280;44539;42.962;1.596;2022-07-01T07:23:28;97496.00;;;14.42;84.28
58771;BME280;44539;42.962;1.596;2022-07-01T07:25:54;97489.59;;;14.36;83.37
58771;BME280;44539;42.962;1.596;2022-07-01T07:28:19;97501.56;;;14.40;83.20
58771;BME280;44539;42.962;1.596;2022-07-01T07:30:45;97501.56;;;14.40;85.70
58771;BME280;44539;42.962;1.596;2022-07-01T07:33:10;97507.13;;;14.45;85.87
58771;BME280;44539;42.962;1.596;2022-07-01T07:35:37;97507.78;;;14.47;81.44
58771;BME280;44539;42.962;1.596;2022-07-01T07:38:02;97501.59;;;14.47;81.40
58771;BME280;44539;42.962;1.596;2022-07-01T07:40:27;97507.56;;;14.64;83.97
58771;BME280;44539;42.962;1.596;2022-07-01T07:42:53;97506.63;;;14.78;87.23
58771;BME280;44539;42.962;1.596;2022-07-01T07:45:18;97504.25;;;14.90;86.21
58771;BME280;44539;42.962;1.596;2022-07-01T07:47:46;97516.41;;;14.93;87.47
58771;BME280;44539;42.962;1.596;2022-07-01T07:50:13;97515.66;;;14.99;86.75
58771;BME280;44539;42.962;1.596;2022-07-01T07:52:40;97514.97;;;14.90;87.07
58771;BME280;44539;42.962;1.596;2022-07-01T07:55:07;97506.84;;;15.05;86.68
58771;BME280;44539;42.962;1.596;2022-07-01T07:57:33;97505.81;;;15.06;87.33
58771;BME280;44539;42.962;1.596;2022-07-01T07:59:59;97510.16;;;15.07;86.24
58771;BME280;44539;42.962;1.596;2022-07-01T08:02:24;97511.84;;;15.15;85.52
58771;BME280;44539;42.962;1.596;2022-07-01T08:04:50;97509.13;;;15.08;86.86
58771;BME280;44539;42.962;1.596;2022-07-01T08:07:15;97515.31;;;15.08;87.49
58771;BME280;44539;42.962;1.596;2022-07-01T08:09:41;97520.84;;;15.07;85.69
58771;BME280;44539;42.962;1.596;2022-07-01T08:12:11;97516.09;;;15.02;85.60
58771;BME280;44539;42.962;1.596;2022-07-01T08:14:37;97517.53;;;15.05;86.13
58771;BME280;44539;42.962;1.596;2022-07-01T08:17:02;97516.59;;;14.91;86.85
58771;BME280;44539;42.962;1.596;2022-07-01T08:19:27;97522.34;;;14.88;87.61
58771;BME280;44539;42.962;1.596;2022-07-01T08:21:53;97528.06;;;14.85;86.79
58771;BME280;44539;42.962;1.596;2022-07-01T08:24:18;97520.91;;;14.64;88.42
58771;BME280;44539;42.962;1.596;2022-07-01T08:26:44;97523.34;;;14.87;87.71
58771;BME280;44539;42.962;1.596;2022-07-01T08:29:09;97521.53;;;14.87;87.86
58771;BME280;44539;42.962;1.596;2022-07-01T08:31:35;97524.25;;;14.94;86.74
58771;BME280;44539;42.962;1.596;2022-07-01T08:34:00;97522.50;;;15.08;88.13
58771;BME280;44539;42.962;1.596;2022-07-01T08:36:27;97518.00;;;14.87;86.88
58771;BME280;44539;42.962;1.596;2022-07-01T08:38:53;97521.63;;;15.01;86.98
58771;BME280;44539;42.962;1.596;2022-07-01T08:41:18;97521.50;;;15.09;86.23
58771;BME280;44539;42.962;1.596;2022-07-01T08:43:45;97517.16;;;15.08;86.61
58771;BME280;44539;42.962;1.596;2022-07-01T08:46:10;97517.06;;;15.29;87.09
58771;BME280;44539;42.962;1.596;2022-07-01T08:48:36;97516.28;;;15.36;84.82
58771;BME280;44539;42.962;1.596;2022-07-01T08:51:02;97515.91;;;15.39;85.67
58771;BME280;44539;42.962;1.596;2022-07-01T08:53:30;97507.53;;;15.48;86.01
58771;BME280;44539;42.962;1.596;2022-07-01T08:55:57;97514.31;;;15.51;86.06
58771;BME280;44539;42.962;1.596;2022-07-01T08:58:41;97513.59;;;15.29;84.27
58771;BME280;44539;42.962;1.596;2022-07-01T09:01:20;97507.91;;;15.39;84.81
58771;BME280;44539;42.962;1.596;2022-07-01T09:03:47;97517.56;;;15.40;86.28
58771;BME280;44539;42.962;1.596;2022-07-01T09:08:40;97508.09;;;15.37;84.15
58771;BME280;44539;42.962;1.596;2022-07-01T09:11:23;97505.91;;;15.54;84.55
58771;BME280;44539;42.962;1.596;2022-07-01T09:16:44;97507.34;;;15.50;83.68
58771;BME280;44539;42.962;1.596;2022-07-01T09:19:11;97507.88;;;15.74;81.17
58771;BME280;44539;42.962;1.596;2022-07-01T09:21:37;97500.06;;;15.79;82.18
58771;BME280;44539;42.962;1.596;2022-07-01T09:24:22;97506.72;;;15.55;81.19
58771;BME280;44539;42.962;1.596;2022-07-01T09:29:33;97495.59;;;15.86;79.51
58771;BME280;44539;42.962;1.596;2022-07-01T09:32:04;97509.47;;;16.09;82.37
58771;BME280;44539;42.962;1.596;2022-07-01T09:34:53;97504.13;;;16.23;80.78
58771;BME280;44539;42.962;1.596;2022-07-01T09:37:21;97504.16;;;16.36;78.60
58771;BME280;44539;42.962;1.596;2022-07-01T09:39:49;97504.78;;;16.45;79.59
58771;BME280;44539;42.962;1.596;2022-07-01T09:42:17;97508.91;;;16.34;78.74
58771;BME280;44539;42.962;1.596;2022-07-01T09:47:24;97501.72;;;16.61;78.80
58771;BME280;44539;42.962;1.596;2022-07-01T09:49:50;97499.25;;;16.60;74.26
58771;BME280;44539;42.962;1.596;2022-07-01T09:52:16;97509.31;;;16.38;74.17
58771;BME280;44539;42.962;1.596;2022-07-01T09:54:44;97502.97;;;16.45;77.84
58771;BME280;44539;42.962;1.596;2022-07-01T09:57:10;97502.75;;;16.53;77.61
58771;BME280;44539;42.962;1.596;2022-07-01T09:59:35;97511.63;;;16.47;75.27
58771;BME280;44539;42.962;1.596;2022-07-01T10:02:01;97512.63;;;16.40;76.40
58771;BME280;44539;42.962;1.596;2022-07-01T10:04:27;97513.69;;;16.39;76.44
58771;BME280;44539;42.962;1.596;2022-07-01T10:07:10;97512.19;;;16.29;75.88
58771;BME280;44539;42.962;1.596;2022-07-01T10:09:55;97518.34;;;16.23;77.67
58771;BME280;44539;42.962;1.596;2022-07-01T10:12:40;97524.59;;;16.30;78.90
58771;BME280;44539;42.962;1.596;2022-07-01T10:15:09;97526.56;;;16.08;79.90
58771;BME280;44539;42.962;1.596;2022-07-01T10:17:40;97519.94;;;16.04;78.57
58771;BME280;44539;42.962;1.596;2022-07-01T10:20:10;97527.78;;;16.06;79.06
58771;BME280;44539;42.962;1.596;2022-07-01T10:22:36;97526.38;;;16.10;80.88
58771;BME280;44539;42.962;1.596;2022-07-01T10:25:32;97527.41;;;16.09;80.02
58771;BME280;44539;42.962;1.596;2022-07-01T10:31:17;97534.63;;;16.15;80.15
58771;BME280;44539;42.962;1.596;2022-07-01T10:36:31;97532.75;;;16.09;80.25
58771;BME280;44539;42.962;1.596;2022-07-01T10:43:57;97532.50;;;15.97;80.34
58771;BME280;44539;42.962;1.596;2022-07-01T10:59:41;97526.63;;;16.22;79.07
58771;BME280;44539;42.962;1.596;2022-07-01T11:02:11;97527.47;;;16.29;79.10
58771;BME280;44539;42.962;1.596;2022-07-01T11:04:38;97526.66;;;16.35;78.07
58771;BME280;44539;42.962;1.596;2022-07-01T11:07:04;97518.38;;;16.30;75.99
58771;BME280;44539;42.962;1.596;2022-07-01T11:09:29;97519.03;;;16.39;76.35
58771;BME280;44539;42.962;1.596;2022-07-01T11:11:55;97520.06;;;16.44;75.80
58771;BME280;44539;42.962;1.596;2022-07-01T11:14:20;97519.03;;;16.45;75.11
58771;BME280;44539;42.962;1.596;2022-07-01T11:16:45;97517.56;;;16.43;74.56
58771;BME280;44539;42.962;1.596;2022-07-01T11:19:11;97520.25;;;16.36;74.40
58771;BME280;44539;42.962;1.596;2022-07-01T11:21:36;97520.66;;;16.33;76.89
58771;BME280;44539;42.962;1.596;2022-07-01T11:24:02;97517.75;;;16.28;76.37
58771;BME280;44539;42.962;1.596;2022-07-01T11:26:27;97522.31;;;16.41;74.90
58771;BME280;44539;42.962;1.596;2022-07-01T11:28:53;97521.91;;;16.37;74.72
58771;BME280;44539;42.962;1.596;2022-07-01T11:31:29;97518.63;;;16.42;75.87
58771;BME280;44539;42.962;1.596;2022-07-01T11:33:55;97525.03;;;16.54;73.67
58771;BME280;44539;42.962;1.596;2022-07-01T11:36:21;97525.44;;;16.58;76.42
58771;BME280;44539;42.962;1.596;2022-07-01T11:39:05;97518.44;;;16.57;74.13
58771;BME280;44539;42.962;1.596;2022-07-01T11:42:00;97522.75;;;16.58;74.07
58771;BME280;44539;42.962;1.596;2022-07-01T11:44:36;97526.06;;;16.60;73.95
58771;BME280;44539;42.962;1.596;2022-07-01T11:47:07;97520.50;;;16.54;73.33
58771;BME280;44539;42.962;1.596;2022-07-01T11:49:33;97523.78;;;16.50;75.65
58771;BME280;44539;42.962;1.596;2022-07-01T11:52:02;97516.56;;;16.64;74.92
58771;BME280;44539;42.962;1.596;2022-07-01T11:54:28;97515.56;;;16.78;73.10
58771;BME280;44539;42.962;1.596;2022-07-01T11:56:54;97518.69;;;16.88;73.26
58771;BME280;44539;42.962;1.596;2022-07-01T11:59:20;97520.97;;;16.91;71.27
58771;BME280;44539;42.962;1.596;2022-07-01T12:01:54;97524.88;;;17.09;71.06
58771;BME280;44539;42.962;1.596;2022-07-01T12:04:20;97520.75;;;17.13;70.01
58771;BME280;44539;42.962;1.596;2022-07-01T12:06:46;97518.91;;;16.80;70.05
58771;BME280;44539;42.962;1.596;2022-07-01T12:09:17;97517.47;;;16.84;72.31
58771;BME280;44539;42.962;1.596;2022-07-01T12:11:45;97515.41;;;16.93;72.60
58771;BME280;44539;42.962;1.596;2022-07-01T12:14:11;97515.19;;;17.01;72.25
58771;BME280;44539;42.962;1.596;2022-07-01T12:16:40;97509.41;;;17.04;70.71
58771;BME280;44539;42.962;1.596;2022-07-01T12:19:06;97516.81;;;17.09;69.88
58771;BME280;44539;42.962;1.596;2022-07-01T12:21:47;97510.84;;;16.93;70.19
58771;BME280;44539;42.962;1.596;2022-07-01T12:24:15;97511.47;;;16.96;69.85
58771;BME280;44539;42.962;1.596;2022-07-01T12:27:02;97510.00;;;17.06;70.60
58771;BME280;44539;42.962;1.596;2022-07-01T12:29:30;97505.06;;;17.10;71.31
58771;BME280;44539;42.962;1.596;2022-07-01T12:31:58;97511.22;;;17.24;70.98
58771;BME280;44539;42.962;1.596;2022-07-01T12:34:42;97506.50;;;17.19;69.24
58771;BME280;44539;42.962;1.596;2022-07-01T12:37:17;97511.63;;;17.41;68.95
58771;BME280;44539;42.962;1.596;2022-07-01T12:39:49;97498.84;;;17.23;68.16
58771;BME280;44539;42.962;1.596;2022-07-01T12:42:23;97499.84;;;17.42;69.81
58771;BME280;44539;42.962;1.596;2022-07-01T12:44:50;97504.34;;;17.61;68.44
58771;BME280;44539;42.962;1.596;2022-07-01T12:47:17;97492.31;;;17.70;70.70
58771;BME280;44539;42.962;1.596;2022-07-01T12:49:43;97493.31;;;17.89;69.06
58771;BME280;44539;42.962;1.596;2022-07-01T12:52:23;97495.81;;;17.78;67.48
58771;BME280;44539;42.962;1.596;2022-07-01T12:54:49;97499.13;;;17.80;67.62
58771;BME280;44539;42.962;1.596;2022-07-01T12:57:14;97500.34;;;17.77;69.26
58771;BME280;44539;42.962;1.596;2022-07-01T12:59:40;97496.63;;;17.85;68.93
58771;BME280;44539;42.962;1.596;2022-07-01T13:02:06;97494.75;;;17.92;68.46
58771;BME280;44539;42.962;1.596;2022-07-01T13:04:31;97496.34;;;18.06;68.53
58771;BME280;44539;42.962;1.596;2022-07-01T13:06:57;97497.22;;;17.93;67.64
58771;BME280;44539;42.962;1.596;2022-07-01T13:09:23;97494.50;;;18.00;68.42
58771;BME280;44539;42.962;1.596;2022-07-01T13:11:49;97498.81;;;18.08;68.31
58771;BME280;44539;42.962;1.596;2022-07-01T13:14:14;97491.97;;;18.12;67.89
58771;BME280;44539;42.962;1.596;2022-07-01T13:16:40;97498.38;;;18.11;67.03
58771;BME280;44539;42.962;1.596;2022-07-01T13:19:05;97494.91;;;18.04;68.39
58771;BME280;44539;42.962;1.596;2022-07-01T13:21:30;97489.56;;;17.97;67.70
58771;BME280;44539;42.962;1.596;2022-07-01T13:23:56;97490.91;;;18.13;66.84
58771;BME280;44539;42.962;1.596;2022-07-01T13:26:21;97490.59;;;18.34;67.12
58771;BME280;44539;42.962;1.596;2022-07-01T13:28:47;97493.97;;;18.55;67.06
58771;BME280;44539;42.962;1.596;2022-07-01T13:31:12;97496.94;;;18.47;66.70
58771;BME280;44539;42.962;1.596;2022-07-01T13:33:38;97501.84;;;18.56;65.52
58771;BME280;44539;42.962;1.596;2022-07-01T13:36:04;97492.16;;;18.49;64.73
58771;BME280;44539;42.962;1.596;2022-07-01T13:38:30;97495.06;;;18.79;65.44
58771;BME280;44539;42.962;1.596;2022-07-01T13:40:55;97494.66;;;18.82;63.42
58771;BME280;44539;42.962;1.596;2022-07-01T13:43:21;97489.53;;;18.99;63.92
58771;BME280;44539;42.962;1.596;2022-07-01T13:45:46;97489.34;;;18.94;64.15
58771;BME280;44539;42.962;1.596;2022-07-01T13:48:12;97482.09;;;18.94;63.90
58771;BME280;44539;42.962;1.596;2022-07-01T13:50:37;97482.34;;;18.93;63.41
58771;BME280;44539;42.962;1.596;2022-07-01T13:53:03;97485.69;;;18.88;63.77
58771;BME280;44539;42.962;1.596;2022-07-01T13:55:28;97480.78;;;19.04;64.49
58771;BME280;44539;42.962;1.596;2022-07-01T13:57:53;97478.13;;;19.22;62.71
58771;BME280;44539;42.962;1.596;2022-07-01T14:00:19;97477.38;;;19.52;62.45
58771;BME280;44539;42.962;1.596;2022-07-01T14:02:45;97478.66;;;19.68;61.77
58771;BME280;44539;42.962;1.596;2022-07-01T14:05:10;97476.34;;;19.90;61.14
58771;BME280;44539;42.962;1.596;2022-07-01T14:07:36;97472.94;;;19.83;61.10
58771;BME280;44539;42.962;1.596;2022-07-01T14:10:02;97469.16;;;20.02;59.60
58771;BME280;44539;42.962;1.596;2022-07-01T14:12:28;97474.44;;;20.39;60.58
58771;BME280;44539;42.962;1.596;2022-07-01T14:14:55;97465.84;;;20.60;58.43
58771;BME280;44539;42.962;1.596;2022-07-01T14:17:20;97463.00;;;19.95;59.04
58771;BME280;44539;42.962;1.596;2022-07-01T14:19:46;97455.53;;;19.60;60.27
58771;BME280;44539;42.962;1.596;2022-07-01T14:22:11;97461.38;;;19.94;60.93
58771;BME280;44539;42.962;1.596;2022-07-01T14:24:36;97450.84;;;19.74;60.38
58771;BME280;44539;42.962;1.596;2022-07-01T14:27:02;97459.28;;;19.77;61.90
58771;BME280;44539;42.962;1.596;2022-07-01T14:29:28;97449.97;;;19.80;61.46
58771;BME280;44539;42.962;1.596;2022-07-01T14:31:53;97450.13;;;19.97;59.53
58771;BME280;44539;42.962;1.596;2022-07-01T14:34:19;97447.59;;;20.02;59.71
58771;BME280;44539;42.962;1.596;2022-07-01T14:36:45;97450.19;;;20.09;59.90
58771;BME280;44539;42.962;1.596;2022-07-01T14:39:10;97446.59;;;19.96;61.09
58771;BME280;44539;42.962;1.596;2022-07-01T14:41:36;97445.38;;;20.11;60.22
58771;BME280;44539;42.962;1.596;2022-07-01T14:44:01;97442.16;;;20.21;60.89
58771;BME280;44539;42.962;1.596;2022-07-01T14:46:26;97446.50;;;20.03;59.97
58771;BME280;44539;42.962;1.596;2022-07-01T14:48:52;97441.69;;;19.93;61.21
58771;BME280;44539;42.962;1.596;2022-07-01T14:51:17;97443.38;;;20.06;60.09
58771;BME280;44539;42.962;1.596;2022-07-01T14:53:43;97433.91;;;19.85;59.70
58771;BME280;44539;42.962;1.596;2022-07-01T14:56:08;97437.47;;;19.97;60.71
58771;BME280;44539;42.962;1.596;2022-07-01T14:58:33;97442.47;;;20.12;59.77
58771;BME280;44539;42.962;1.596;2022-07-01T15:00:59;97435.50;;;20.05;58.30
58771;BME280;44539;42.962;1.596;2022-07-01T15:03:24;97430.53;;;19.90;61.04
58771;BME280;44539;42.962;1.596;2022-07-01T15:05:50;97427.31;;;19.81;60.76
58771;BME280;44539;42.962;1.596;2022-07-01T15:08:15;97425.31;;;20.07;59.45
58771;BME280;44539;42.962;1.596;2022-07-01T15:10:41;97417.63;;;20.22;60.10
58771;BME280;44539;42.962;1.596;2022-07-01T15:13:06;97417.53;;;20.29;58.32
58771;BME280;44539;42.962;1.596;2022-07-01T15:15:31;97418.44;;;20.23;58.98
58771;BME280;44539;42.962;1.596;2022-07-01T15:17:57;97417.19;;;20.37;58.14
58771;BME280;44539;42.962;1.596;2022-07-01T15:20:22;97414.69;;;20.77;56.34
58771;BME280;44539;42.962;1.596;2022-07-01T15:22:48;97412.59;;;21.03;57.79
58771;BME280;44539;42.962;1.596;2022-07-01T15:25:13;97400.75;;;21.04;55.80
58771;BME280;44539;42.962;1.596;2022-07-01T15:27:41;97398.38;;;21.08;56.48
58771;BME280;44539;42.962;1.596;2022-07-01T15:30:07;97401.28;;;21.18;56.08
58771;BME280;44539;42.962;1.596;2022-07-01T15:32:34;97399.19;;;21.32;55.93
58771;BME280;44539;42.962;1.596;2022-07-01T15:35:00;97400.03;;;21.09;54.95
58771;BME280;44539;42.962;1.596;2022-07-01T15:37:29;97398.25;;;21.03;55.25
58771;BME280;44539;42.962;1.596;2022-07-01T15:39:54;97412.00;;;20.89;56.71
58771;BME280;44539;42.962;1.596;2022-07-01T15:42:19;97402.72;;;20.97;55.19
58771;BME280;44539;42.962;1.596;2022-07-01T15:44:46;97402.72;;;20.73;56.24
58771;BME280;44539;42.962;1.596;2022-07-01T15:47:13;97399.31;;;21.01;58.47
58771;BME280;44539;42.962;1.596;2022-07-01T15:49:56;97400.88;;;20.97;57.62
58771;BME280;44539;42.962;1.596;2022-07-01T15:52:22;97404.50;;;20.91;56.61
58771;BME280;44539;42.962;1.596;2022-07-01T15:54:47;97404.25;;;21.05;56.73
58771;BME280;44539;42.962;1.596;2022-07-01T15:57:13;97395.53;;;21.26;55.14
58771;BME280;44539;42.962;1.596;2022-07-01T15:59:38;97397.16;;;21.51;55.64
58771;BME280;44539;42.962;1.596;2022-07-01T16:02:04;97385.56;;;21.67;54.32
58771;BME280;44539;42.962;1.596;2022-07-01T16:04:33;97395.72;;;21.60;54.80
58771;BME280;44539;42.962;1.596;2022-07-01T16:07:03;97388.47;;;21.49;54.63
58771;BME280;44539;42.962;1.596;2022-07-01T16:09:33;97396.59;;;21.25;56.45
58771;BME280;44539;42.962;1.596;2022-07-01T16:12:01;97396.88;;;21.00;55.27
58771;BME280;44539;42.962;1.596;2022-07-01T16:14:27;97393.91;;;21.01;56.73
58771;BME280;44539;42.962;1.596;2022-07-01T16:16:54;97392.97;;;20.84;56.95
58771;BME280;44539;42.962;1.596;2022-07-01T16:19:21;97396.50;;;20.73;57.75
58771;BME280;44539;42.962;1.596;2022-07-01T16:36:44;97391.41;;;20.41;60.41
58771;BME280;44539;42.962;1.596;2022-07-01T16:39:16;97395.84;;;20.35;61.79
58771;BME280;44539;42.962;1.596;2022-07-01T16:44:17;97390.22;;;20.25;61.68
58771;BME280;44539;42.962;1.596;2022-07-01T16:46:50;97390.44;;;20.24;59.25
58771;BME280;44539;42.962;1.596;2022-07-01T16:49:25;97397.94;;;20.22;62.78
58771;BME280;44539;42.962;1.596;2022-07-01T16:52:00;97400.00;;;20.08;60.18
58771;BME280;44539;42.962;1.596;2022-07-01T16:54:29;97397.53;;;20.06;60.10
58771;BME280;44539;42.962;1.596;2022-07-01T16:56:58;97392.38;;;20.05;60.60
58771;BME280;44539;42.962;1.596;2022-07-01T16:59:26;97396.72;;;20.06;62.22
58771;BME280;44539;42.962;1.596;2022-07-01T17:01:54;97396.47;;;19.95;64.47
58771;BME280;44539;42.962;1.596;2022-07-01T17:04:22;97400.56;;;19.98;60.46
58771;BME280;44539;42.962;1.596;2022-07-01T17:06:48;97398.84;;;20.04;63.52
58771;BME280;44539;42.962;1.596;2022-07-01T17:09:15;97402.94;;;20.06;63.36
58771;BME280;44539;42.962;1.596;2022-07-01T17:11:42;97404.13;;;20.10;61.24
58771;BME280;44539;42.962;1.596;2022-07-01T17:14:09;97407.56;;;19.99;61.10
58771;BME280;44539;42.962;1.596;2022-07-01T17:16:35;97407.34;;;19.89;60.01
58771;BME280;44539;42.962;1.596;2022-07-01T17:19:03;97419.88;;;19.95;60.12
58771;BME280;44539;42.962;1.596;2022-07-01T17:21:46;97413.25;;;19.79;60.25
58771;BME280;44539;42.962;1.596;2022-07-01T17:24:14;97414.22;;;19.85;64.20
58771;BME280;44539;42.962;1.596;2022-07-01T17:26:51;97416.75;;;19.79;63.13
58771;BME280;44539;42.962;1.596;2022-07-01T17:29:30;97413.63;;;19.83;60.49
58771;BME280;44539;42.962;1.596;2022-07-01T17:32:04;97423.44;;;20.07;60.69
58771;BME280;44539;42.962;1.596;2022-07-01T17:34:30;97410.44;;;20.16;60.62
58771;BME280;44539;42.962;1.596;2022-07-01T17:36:58;97413.63;;;20.25;60.64
58771;BME280;44539;42.962;1.596;2022-07-01T17:39:30;97422.81;;;20.35;59.22
58771;BME280;44539;42.962;1.596;2022-07-01T17:41:57;97412.66;;;20.49;58.92
58771;BME280;44539;42.962;1.596;2022-07-01T17:44:25;97415.53;;;20.66;57.37
58771;BME280;44539;42.962;1.596;2022-07-01T17:46:53;97413.75;;;20.60;56.79
58771;BME280;44539;42.962;1.596;2022-07-01T17:49:24;97421.38;;;20.75;57.02
58771;BME280;44539;42.962;1.596;2022-07-01T17:51:49;97415.50;;;20.78;57.09
58771;BME280;44539;42.962;1.596;2022-07-01T17:54:20;97411.88;;;20.72;56.50
58771;BME280;44539;42.962;1.596;2022-07-01T17:56:46;97421.34;;;20.51;56.80
